Time;durP1;ratioP1;P1;durP2;ratioP2;P2;SDS_P1;SDS_P2;PMS_P1;PMS_P2;Temp;Humidity;BMP_temperature;BMP_pressure;BME280_temperature;BME280_humidity;BME280_pressure;Samples;Min_cycle;Max_cycle;Signal;HPM_P1;HPM_P2
2023/08/07 00:01:23;;;;;;;5.80;3.40;;;;;;;-141.23;100.00;62281.09;5033686;28;20064;-69
2023/08/07 00:03:49;;;;;;;3.97;3.53;;;;;;;-141.23;100.00;62281.09;5033569;28;20056;-70
2023/08/07 00:06:15;;;;;;;5.90;3.65;;;;;;;-141.23;100.00;62281.09;5016718;28;20041;-68
2023/08/07 00:08:40;;;;;;;8.43;3.65;;;;;;;-141.23;100.00;62281.09;5000410;28;20091;-70
2023/08/07 00:11:08;;;;;;;7.93;3.67;;;;;;;-141.23;100.00;62281.09;5016745;28;20045;-71
2023/08/07 00:13:33;;;;;;;6.10;3.22;;;;;;;-141.23;100.00;62281.09;5032777;28;20060;-69
2023/08/07 00:15:59;;;;;;;8.15;3.78;;;;;;;-141.23;100.00;62281.09;5033403;28;20061;-68
2023/08/07 00:18:25;;;;;;;5.53;3.75;;;;;;;-141.23;100.00;62281.09;5033597;28;20049;-69
2023/08/07 00:20:51;;;;;;;9.70;3.50;;;;;;;-141.23;100.00;62281.09;5032681;28;20061;-68
2023/08/07 00:23:17;;;;;;;7.82;3.80;;;;;;;-141.23;100.00;62281.09;5033766;28;20056;-69
2023/08/07 00:25:42;;;;;;;6.45;3.40;;;;;;;-141.23;100.00;62281.09;5016194;28;20484;-69
2023/08/07 00:28:33;;;;;;;9.65;3.63;;;;;;;-141.23;100.00;62281.09;5033755;28;20660;-70
2023/08/07 00:31:57;;;;;;;9.30;3.58;;;;;;;-141.23;100.00;62281.09;5032501;28;20033;-69
2023/08/07 00:34:24;;;;;;;5.28;3.72;;;;;;;-141.23;100.00;62281.09;5032595;28;20045;-68
2023/08/07 00:36:50;;;;;;;12.18;3.67;;;;;;;-141.23;100.00;62281.09;5032978;28;20415;-69
2023/08/07 00:39:16;;;;;;;6.28;3.55;;;;;;;-141.23;100.00;62281.09;5032816;28;20099;-70
2023/08/07 00:41:42;;;;;;;8.52;4.20;;;;;;;-141.23;100.00;62281.09;5016346;28;20156;-68
2023/08/07 00:44:08;;;;;;;5.32;3.40;;;;;;;-141.23;100.00;62281.09;5015907;28;20041;-69
2023/08/07 00:46:35;;;;;;;6.68;4.15;;;;;;;-141.23;100.00;62281.09;5033105;28;20057;-71
2023/08/07 00:49:00;;;;;;;7.30;3.88;;;;;;;-141.23;100.00;62281.09;5015956;28;20110;-69
2023/08/07 00:51:26;;;;;;;6.45;3.47;;;;;;;-141.23;100.00;62281.09;5014686;28;20140;-69
2023/08/07 00:53:53;;;;;;;5.68;3.58;;;;;;;-141.23;100.00;62281.09;5014457;28;20443;-69
2023/08/07 00:56:19;;;;;;;7.35;3.78;;;;;;;-141.23;100.00;62281.09;5014106;28;20040;-69
2023/08/07 00:58:45;;;;;;;7.45;3.53;;;;;;;-141.23;100.00;62281.09;5013769;28;20049;-68
2023/08/07 01:01:11;;;;;;;7.40;3.58;;;;;;;-141.23;100.00;62281.09;5031463;28;20046;-69
2023/08/07 01:03:37;;;;;;;7.50;4.03;;;;;;;-141.23;100.00;62281.09;5030078;28;20136;-68
2023/08/07 01:06:05;;;;;;;6.32;3.60;;;;;;;-141.23;100.00;62281.09;5033506;28;20140;-68
2023/08/07 01:08:31;;;;;;;9.93;3.72;;;;;;;-141.23;100.00;62281.09;4984358;28;20037;-69
2023/08/07 01:11:11;;;;;;;5.75;3.83;;;;;;;-141.23;100.00;62281.09;5000711;28;20531;-69
2023/08/07 01:13:42;;;;;;;6.88;3.53;;;;;;;-141.23;100.00;62281.09;5016843;28;20111;-69
2023/08/07 01:16:14;;;;;;;7.47;3.78;;;;;;;-141.23;100.00;62281.09;5033262;28;20088;-69
2023/08/07 01:18:40;;;;;;;4.88;3.17;;;;;;;-141.23;100.00;62281.09;5016761;28;20041;-69
2023/08/07 01:21:06;;;;;;;4.82;3.13;;;;;;;-141.23;100.00;62281.09;5033547;28;20051;-69
2023/08/07 01:23:33;;;;;;;7.43;3.92;;;;;;;-141.23;100.00;62281.09;5034439;28;20063;-68
2023/08/07 01:25:59;;;;;;;8.85;3.83;;;;;;;-141.23;100.00;62281.09;5034082;28;20068;-68
2023/08/07 01:28:37;;;;;;;7.15;3.75;;;;;;;-141.23;100.00;62281.09;5033252;28;20048;-68
2023/08/07 01:31:14;;;;;;;7.30;3.85;;;;;;;-141.23;100.00;62281.09;5033130;28;20383;-69
2023/08/07 01:33:49;;;;;;;10.32;3.40;;;;;;;-141.23;100.00;62281.09;5000570;28;20045;-70
2023/08/07 01:36:16;;;;;;;7.85;3.40;;;;;;;-141.23;100.00;62281.09;5033777;28;20037;-69
2023/08/07 01:38:42;;;;;;;14.30;4.03;;;;;;;-141.23;100.00;62281.09;5034929;28;20423;-69
2023/08/07 01:41:09;;;;;;;8.23;4.10;;;;;;;-141.23;100.00;62281.09;4984532;28;20037;-70
2023/08/07 01:43:34;;;;;;;7.35;3.80;;;;;;;-141.23;100.00;62281.09;5015682;28;20506;-70
2023/08/07 01:46:02;;;;;;;6.53;3.83;;;;;;;-141.23;100.00;62281.09;5016495;28;20056;-69
2023/08/07 01:48:28;;;;;;;11.30;4.10;;;;;;;-141.23;100.00;62281.09;5032785;28;20068;-69
2023/08/07 01:50:55;;;;;;;9.00;3.90;;;;;;;-141.23;100.00;62281.09;5016566;28;20077;-69
2023/08/07 01:53:21;;;;;;;4.78;3.40;;;;;;;-141.23;100.00;62281.09;5032450;28;20037;-69
2023/08/07 01:55:47;;;;;;;7.15;3.30;;;;;;;-141.23;100.00;62281.09;5031166;28;20353;-70
2023/08/07 01:58:12;;;;;;;9.73;3.50;;;;;;;-141.23;100.00;62281.09;5015378;28;20128;-70
2023/08/07 02:00:38;;;;;;;7.50;3.92;;;;;;;-141.23;100.00;62281.09;5015222;28;20045;-68
2023/08/07 02:03:04;;;;;;;7.32;3.33;;;;;;;-141.23;100.00;62281.09;5032480;28;20049;-69
2023/08/07 02:05:30;;;;;;;6.75;3.63;;;;;;;-141.23;100.00;62281.09;5031365;28;20041;-70
2023/08/07 02:07:56;;;;;;;6.97;3.50;;;;;;;-141.23;100.00;62281.09;5015233;28;20025;-69
2023/08/07 02:10:22;;;;;;;7.25;3.72;;;;;;;-141.23;100.00;62281.09;5032574;28;20041;-69
2023/08/07 02:12:49;;;;;;;7.07;3.92;;;;;;;-141.23;100.00;62281.09;5031098;28;20063;-69
2023/08/07 02:15:14;;;;;;;8.93;3.92;;;;;;;-141.23;100.00;62281.09;5032012;28;20396;-68
2023/08/07 02:17:41;;;;;;;9.25;3.70;;;;;;;-141.23;100.00;62281.09;5015277;28;20046;-69
2023/08/07 02:20:07;;;;;;;9.25;3.70;;;;;;;-141.23;100.00;62281.09;5032241;28;20048;-69
2023/08/07 02:22:33;;;;;;;10.40;3.50;;;;;;;-141.23;100.00;62281.09;5032255;28;20049;-69
2023/08/07 02:24:59;;;;;;;10.35;3.50;;;;;;;-141.23;100.00;62281.09;5030983;28;20046;-69
2023/08/07 02:27:24;;;;;;;13.77;3.75;;;;;;;-141.23;100.00;62281.09;5031880;28;20508;-69
2023/08/07 02:29:54;;;;;;;5.22;3.63;;;;;;;-141.23;100.00;62281.09;5030982;28;20045;-70
2023/08/07 02:32:20;;;;;;;9.95;3.70;;;;;;;-141.23;100.00;62281.09;5015146;28;20488;-69
2023/08/07 02:34:45;;;;;;;8.82;3.97;;;;;;;-141.23;100.00;62281.09;5014433;28;20042;-69
2023/08/07 02:37:11;;;;;;;6.70;3.85;;;;;;;-141.23;100.00;62281.09;5014679;28;20198;-69
2023/08/07 02:39:37;;;;;;;7.63;3.50;;;;;;;-141.23;100.00;62281.09;5014460;28;20073;-69
2023/08/07 02:42:03;;;;;;;6.82;3.47;;;;;;;-141.23;100.00;62281.09;4998170;28;20507;-69
2023/08/07 02:44:29;;;;;;;7.25;3.50;;;;;;;-141.23;100.00;62281.09;5031840;28;20045;-69
2023/08/07 02:46:55;;;;;;;12.60;3.83;;;;;;;-141.23;100.00;62281.09;5014923;28;20041;-69
2023/08/07 02:49:21;;;;;;;6.90;3.45;;;;;;;-141.23;100.00;62281.09;5031909;28;20110;-69
2023/08/07 02:51:48;;;;;;;6.30;3.78;;;;;;;-141.23;100.00;62281.09;5030561;28;20387;-69
2023/08/07 02:54:14;;;;;;;17.00;3.75;;;;;;;-141.23;100.00;62281.09;4998093;28;20358;-69
2023/08/07 02:56:41;;;;;;;8.73;3.30;;;;;;;-141.23;100.00;62281.09;5031643;28;20068;-69
2023/08/07 02:59:07;;;;;;;9.63;3.70;;;;;;;-141.23;100.00;62281.09;5030690;28;20045;-69
2023/08/07 03:01:33;;;;;;;11.45;4.10;;;;;;;-141.23;100.00;62281.09;5030358;28;20140;-69
2023/08/07 03:03:59;;;;;;;8.43;3.53;;;;;;;-141.23;100.00;62281.09;5014672;28;20136;-70
2023/08/07 03:06:25;;;;;;;9.38;4.03;;;;;;;-141.23;100.00;62281.09;5032495;28;20076;-69
2023/08/07 03:08:51;;;;;;;6.25;3.40;;;;;;;-141.23;100.00;62281.09;5035932;28;20045;-69
2023/08/07 03:11:17;;;;;;;5.28;3.60;;;;;;;-141.23;100.00;62281.09;5035962;28;20051;-70
2023/08/07 03:13:44;;;;;;;7.78;3.50;;;;;;;-141.23;100.00;62281.09;5034634;28;20038;-69
2023/08/07 03:16:10;;;;;;;4.80;3.60;;;;;;;-141.23;100.00;62281.09;5033463;28;20155;-69
2023/08/07 03:18:36;;;;;;;7.63;4.07;;;;;;;-141.23;100.00;62281.09;5033786;28;20481;-70
2023/08/07 03:21:02;;;;;;;9.10;3.75;;;;;;;-141.23;100.00;62281.09;5017129;28;20068;-69
2023/08/07 03:23:28;;;;;;;7.05;3.55;;;;;;;-141.23;100.00;62281.09;5017851;28;20057;-70
2023/08/07 03:26:10;;;;;;;6.55;3.80;;;;;;;-141.23;100.00;62281.09;5034801;28;20046;-70
2023/08/07 03:28:38;;;;;;;5.05;3.38;;;;;;;-141.23;100.00;62281.09;5017654;28;20504;-69
2023/08/07 03:31:05;;;;;;;6.15;3.70;;;;;;;-141.23;100.00;62281.09;5033393;28;20041;-69
2023/08/07 03:33:34;;;;;;;5.38;3.47;;;;;;;-141.23;100.00;62281.09;5033638;28;20136;-70
2023/08/07 03:36:00;;;;;;;6.40;3.40;;;;;;;-141.23;100.00;62281.09;5017501;28;20037;-69
2023/08/07 03:38:28;;;;;;;9.30;3.28;;;;;;;-141.23;100.00;62281.09;5033727;28;20041;-69
2023/08/07 03:40:56;;;;;;;5.70;3.20;;;;;;;-141.23;100.00;62281.09;5017620;28;20091;-69
2023/08/07 03:43:22;;;;;;;8.23;3.53;;;;;;;-141.23;100.00;62281.09;5033415;28;20103;-69
2023/08/07 03:45:54;;;;;;;9.40;3.17;;;;;;;-141.23;100.00;62281.09;5034691;28;20443;-70
2023/08/07 03:48:20;;;;;;;7.18;3.33;;;;;;;-141.23;100.00;62281.09;5033756;28;20037;-69
2023/08/07 03:50:46;;;;;;;5.55;3.33;;;;;;;-141.23;100.00;62281.09;5017335;28;20135;-69
2023/08/07 03:53:12;;;;;;;7.28;3.55;;;;;;;-141.23;100.00;62281.09;5001785;28;20515;-70
2023/08/07 03:55:44;;;;;;;5.10;3.20;;;;;;;-141.23;100.00;62281.09;5019530;28;20164;-69
2023/08/07 03:58:10;;;;;;;7.72;3.05;;;;;;;-141.23;100.00;62281.09;5001666;28;20049;-70
2023/08/07 04:00:36;;;;;;;9.60;3.20;;;;;;;-141.23;100.00;62281.09;5001434;28;20080;-72
2023/08/07 04:03:02;;;;;;;4.90;2.97;;;;;;;-141.23;100.00;62281.09;5033905;28;20068;-70
2023/08/07 04:05:28;;;;;;;8.02;3.38;;;;;;;-141.23;100.00;62281.09;5000518;28;20124;-72
2023/08/07 04:07:54;;;;;;;8.43;3.20;;;;;;;-141.23;100.00;62281.09;5000167;28;20042;-69
2023/08/07 04:10:20;;;;;;;6.30;3.05;;;;;;;-141.23;100.00;62281.09;5032909;28;20426;-69
2023/08/07 04:12:45;;;;;;;8.20;3.00;;;;;;;-141.23;100.00;62281.09;5016807;28;20041;-70
2023/08/07 04:15:11;;;;;;;4.63;2.95;;;;;;;-141.23;100.00;62281.09;5033094;28;20057;-69
2023/08/07 04:17:37;;;;;;;7.28;3.30;;;;;;;-141.23;100.00;62281.09;5034001;28;20164;-69
2023/08/07 04:20:03;;;;;;;7.57;3.20;;;;;;;-141.23;100.00;62281.09;5024256;28;20037;-71
2023/08/07 04:22:30;;;;;;;10.77;3.30;;;;;;;-141.23;100.00;62281.09;5042145;28;20483;-70
2023/08/07 04:24:57;;;;;;;7.07;3.60;;;;;;;-141.23;100.00;62281.09;5035038;28;20526;-70
2023/08/07 04:27:22;;;;;;;10.73;3.00;;;;;;;-141.23;100.00;62281.09;5026523;28;20038;-70
2023/08/07 04:29:48;;;;;;;5.50;2.97;;;;;;;-141.23;100.00;62281.09;5011174;28;20041;-71
2023/08/07 04:32:14;;;;;;;8.93;2.83;;;;;;;-141.23;100.00;62281.09;5027422;28;20041;-70
2023/08/07 04:34:40;;;;;;;3.92;2.60;;;;;;;-141.23;100.00;62281.09;5025462;28;20451;-70
2023/08/07 04:37:06;;;;;;;8.43;2.78;;;;;;;-141.23;100.00;62281.09;5042089;28;20071;-68
2023/08/07 04:39:32;;;;;;;9.65;3.05;;;;;;;-141.23;100.00;62281.09;5034328;28;20495;-69
2023/08/07 04:41:58;;;;;;;11.98;3.17;;;;;;;-141.23;100.00;62281.09;5034683;28;20033;-69
2023/08/07 04:44:24;;;;;;;7.28;2.88;;;;;;;-141.23;100.00;62281.09;5041513;28;20037;-69
2023/08/07 04:47:05;;;;;;;6.03;2.85;;;;;;;-141.23;100.00;62281.09;5040848;28;20052;-70
2023/08/07 04:50:29;;;;;;;7.43;2.45;;;;;;;-141.23;100.00;62281.09;5043725;28;20076;-69
2023/08/07 04:53:14;;;;;;;10.13;2.88;;;;;;;-141.23;100.00;62281.09;5009819;28;20052;-68
2023/08/07 04:56:40;;;;;;;3.67;2.30;;;;;;;-141.23;100.00;62281.09;5043178;28;20182;-70
2023/08/07 04:59:06;;;;;;;6.03;2.47;;;;;;;-141.23;100.00;62281.09;5024664;28;20037;-70
2023/08/07 05:01:32;;;;;;;5.68;2.40;;;;;;;-141.23;100.00;62281.09;5024929;28;20042;-69
2023/08/07 05:03:59;;;;;;;6.53;2.20;;;;;;;-141.23;100.00;62281.09;5022740;28;20045;-69
2023/08/07 05:06:24;;;;;;;7.20;2.30;;;;;;;-141.23;100.00;62281.09;4992457;28;20029;-69
2023/08/07 05:08:50;;;;;;;6.75;2.20;;;;;;;-141.23;100.00;62281.09;5039225;28;20071;-69
2023/08/07 05:11:16;;;;;;;10.57;2.70;;;;;;;-141.23;100.00;62281.09;5008726;28;20037;-69
2023/08/07 05:13:42;;;;;;;15.13;2.90;;;;;;;-141.23;100.00;62281.09;5008326;28;20107;-68
2023/08/07 05:16:07;;;;;;;6.13;2.35;;;;;;;-141.23;100.00;62281.09;5025041;28;20140;-69
2023/08/07 05:18:53;;;;;;;10.35;2.53;;;;;;;-141.23;100.00;62281.09;5039969;28;20429;-70
2023/08/07 05:21:20;;;;;;;12.32;3.25;;;;;;;-141.23;100.00;62281.09;5003368;28;20443;-70
2023/08/07 05:23:47;;;;;;;5.90;2.22;;;;;;;-141.23;100.00;62281.09;5040736;28;20140;-69
2023/08/07 05:26:13;;;;;;;7.85;2.28;;;;;;;-141.23;100.00;62281.09;5040902;28;20216;-69
2023/08/07 05:28:39;;;;;;;10.70;2.63;;;;;;;-141.23;100.00;62281.09;5039336;28;20128;-69
2023/08/07 05:31:04;;;;;;;4.95;2.45;;;;;;;-141.23;100.00;62281.09;5041800;28;20044;-70
2023/08/07 05:33:30;;;;;;;6.38;2.28;;;;;;;-141.23;100.00;62281.09;5017175;28;20070;-70
2023/08/07 05:35:56;;;;;;;6.38;2.20;;;;;;;-141.23;100.00;62281.09;5050008;28;20048;-69
2023/08/07 05:38:23;;;;;;;6.70;2.30;;;;;;;-141.23;100.00;62281.09;5034357;28;20045;-70
2023/08/07 05:40:49;;;;;;;4.03;2.15;;;;;;;-141.23;100.00;62281.09;5035095;28;20048;-72
2023/08/07 05:43:16;;;;;;;4.82;2.33;;;;;;;-141.23;100.00;62281.09;5035648;28;20041;-74
2023/08/07 05:45:44;;;;;;;5.60;2.30;;;;;;;-141.23;100.00;62281.09;5051961;28;20045;-71
2023/08/07 05:48:10;;;;;;;12.20;2.40;;;;;;;-141.23;100.00;62281.09;5050245;28;20056;-72
2023/08/07 05:50:37;;;;;;;11.15;2.13;;;;;;;-141.23;100.00;62281.09;5050281;28;20053;-71
2023/08/07 05:53:04;;;;;;;5.95;2.20;;;;;;;-141.23;100.00;62281.09;5017733;28;20490;-72
2023/08/07 05:55:30;;;;;;;7.60;2.22;;;;;;;-141.23;100.00;62281.09;5050480;28;20037;-72
2023/08/07 05:57:56;;;;;;;7.50;2.13;;;;;;;-141.23;100.00;62281.09;5013600;28;20409;-71
2023/08/07 06:00:21;;;;;;;6.93;1.80;;;;;;;-141.23;100.00;62281.09;5033342;28;20510;-71
2023/08/07 06:02:47;;;;;;;5.43;2.13;;;;;;;-141.23;100.00;62281.09;5017161;28;20032;-71
2023/08/07 06:05:14;;;;;;;8.60;2.22;;;;;;;-141.23;100.00;62281.09;5047692;28;20064;-73
2023/08/07 06:07:41;;;;;;;7.30;1.92;;;;;;;-141.23;100.00;62281.09;5041004;28;20036;-74
2023/08/07 06:10:08;;;;;;;8.13;2.20;;;;;;;-141.23;100.00;62281.09;4995593;28;20049;-70
2023/08/07 06:12:34;;;;;;;3.05;1.85;;;;;;;-141.23;100.00;62281.09;5039333;28;20057;-73
2023/08/07 06:15:01;;;;;;;6.50;2.00;;;;;;;-141.23;100.00;62281.09;5026498;28;20052;-71
2023/08/07 06:17:28;;;;;;;4.75;2.55;;;;;;;-141.23;100.00;62281.09;5038739;28;20044;-73
2023/08/07 06:19:54;;;;;;;3.90;1.95;;;;;;;-141.23;100.00;62281.09;5024331;28;20037;-73
2023/08/07 06:22:19;;;;;;;7.53;1.90;;;;;;;-141.23;100.00;62281.09;5023975;28;20115;-72
2023/08/07 06:24:45;;;;;;;5.53;1.90;;;;;;;-141.23;100.00;62281.09;5038798;28;20145;-71
2023/08/07 06:27:11;;;;;;;9.00;2.17;;;;;;;-141.23;100.00;62281.09;5043444;28;20105;-72
2023/08/07 06:29:37;;;;;;;5.82;1.90;;;;;;;-141.23;100.00;62281.09;5049508;28;20036;-71
2023/08/07 06:32:03;;;;;;;3.75;1.75;;;;;;;-141.23;100.00;62281.09;5049624;28;20471;-71
2023/08/07 06:34:29;;;;;;;10.02;1.95;;;;;;;-141.23;100.00;62281.09;5049706;28;20045;-70
2023/08/07 06:36:55;;;;;;;4.07;1.58;;;;;;;-141.23;100.00;62281.09;5033131;28;20044;-70
2023/08/07 06:39:21;;;;;;;6.20;1.60;;;;;;;-141.23;100.00;62281.09;5032938;28;20051;-70
2023/08/07 06:41:47;;;;;;;7.65;2.55;;;;;;;-141.23;100.00;62281.09;5035636;28;20037;-70
2023/08/07 06:44:15;;;;;;;8.38;1.92;;;;;;;-141.23;100.00;62281.09;5053433;28;20479;-69
2023/08/07 06:46:41;;;;;;;9.43;1.83;;;;;;;-141.23;100.00;62281.09;5053034;28;20063;-68
2023/08/07 06:49:07;;;;;;;9.38;2.40;;;;;;;-141.23;100.00;62281.09;5037480;28;20045;-70
2023/08/07 06:51:33;;;;;;;8.80;2.13;;;;;;;-141.23;100.00;62281.09;5054478;28;20487;-69
2023/08/07 06:53:58;;;;;;;4.70;1.92;;;;;;;-141.23;100.00;62281.09;5053278;28;20036;-69
2023/08/07 06:56:24;;;;;;;10.85;1.90;;;;;;;-141.23;100.00;62281.09;5053796;28;20049;-69
2023/08/07 06:58:50;;;;;;;6.18;1.70;;;;;;;-141.23;100.00;62281.09;5053374;28;20056;-71
2023/08/07 07:01:16;;;;;;;7.40;1.92;;;;;;;-141.23;100.00;62281.09;5020393;28;20047;-73
2023/08/07 07:03:42;;;;;;;9.02;1.80;;;;;;;-141.23;100.00;62281.09;5054110;28;20041;-69
2023/08/07 07:06:08;;;;;;;2.60;1.50;;;;;;;-141.23;100.00;62281.09;5020761;28;20191;-70
2023/08/07 07:08:43;;;;;;;8.80;1.90;;;;;;;-141.23;100.00;62281.09;5053311;28;20376;-72
2023/08/07 07:11:17;;;;;;;9.80;1.90;;;;;;;-141.23;100.00;62281.09;5067708;28;20049;-71
2023/08/07 07:13:43;;;;;;;9.88;1.83;;;;;;;-141.23;100.00;62281.09;5051754;28;20051;-70
2023/08/07 07:16:11;;;;;;;5.95;1.80;;;;;;;-141.23;100.00;62281.09;5020589;28;20045;-71
2023/08/07 07:18:37;;;;;;;8.57;2.08;;;;;;;-141.23;100.00;62281.09;5036807;28;20063;-70
2023/08/07 07:21:06;;;;;;;8.45;1.88;;;;;;;-141.23;100.00;62281.09;5035791;28;20106;-70
2023/08/07 07:23:32;;;;;;;8.10;1.63;;;;;;;-141.23;100.00;62281.09;5032899;28;20595;-70
2023/08/07 07:25:58;;;;;;;5.90;1.60;;;;;;;-141.23;100.00;62281.09;5026632;28;20132;-70
2023/08/07 07:28:23;;;;;;;8.48;1.90;;;;;;;-141.23;100.00;62281.09;5031116;28;20046;-70
2023/08/07 07:30:50;;;;;;;7.78;1.58;;;;;;;-141.23;100.00;62281.09;4979076;28;20574;-70
2023/08/07 07:33:16;;;;;;;8.57;1.75;;;;;;;-141.23;100.00;62281.09;4963653;28;20050;-70
2023/08/07 07:35:43;;;;;;;4.28;1.38;;;;;;;-141.23;100.00;62281.09;5011664;28;20065;-70
2023/08/07 07:38:10;;;;;;;9.00;1.80;;;;;;;-141.23;100.00;62281.09;4979372;28;20065;-72
2023/08/07 07:40:36;;;;;;;4.35;1.33;;;;;;;-141.23;100.00;62281.09;4947628;28;20095;-70
2023/08/07 07:43:03;;;;;;;7.60;1.58;;;;;;;-141.23;100.00;62281.09;4978959;28;20508;-70
2023/08/07 07:45:29;;;;;;;7.22;1.88;;;;;;;-141.23;100.00;62281.09;4980874;28;20049;-71
2023/08/07 07:47:55;;;;;;;12.18;1.52;;;;;;;-141.23;100.00;62281.09;5015077;28;20061;-71
2023/08/07 07:50:21;;;;;;;8.98;1.35;;;;;;;-141.23;100.00;62281.09;5030783;28;20115;-73
2023/08/07 07:52:48;;;;;;;6.60;1.40;;;;;;;-141.23;100.00;62281.09;4993324;28;20072;-73
2023/08/07 07:55:14;;;;;;;6.30;1.25;;;;;;;-141.23;100.00;62281.09;4995082;28;20464;-71
2023/08/07 07:57:40;;;;;;;5.22;1.50;;;;;;;-141.23;100.00;62281.09;4995174;28;20054;-74
2023/08/07 08:00:10;;;;;;;9.85;1.67;;;;;;;-141.23;100.00;62281.09;4995145;28;20045;-71
2023/08/07 08:02:37;;;;;;;12.73;1.90;;;;;;;-141.23;100.00;62281.09;4996698;28;20467;-70
2023/08/07 08:05:04;;;;;;;3.40;1.40;;;;;;;-141.23;100.00;62281.09;4998267;28;20033;-71
2023/08/07 08:07:32;;;;;;;5.72;1.30;;;;;;;-141.23;100.00;62281.09;4998069;28;20485;-70
2023/08/07 08:09:57;;;;;;;6.35;1.40;;;;;;;-141.23;100.00;62281.09;4998687;28;20041;-70
2023/08/07 08:12:23;;;;;;;7.70;1.42;;;;;;;-141.23;100.00;62281.09;4980986;28;20524;-71
2023/08/07 08:14:51;;;;;;;9.82;1.50;;;;;;;-141.23;100.00;62281.09;4966086;28;20061;-71
2023/08/07 08:17:17;;;;;;;4.90;1.42;;;;;;;-141.23;100.00;62281.09;5014519;28;20049;-72
2023/08/07 08:19:42;;;;;;;11.32;1.65;;;;;;;-141.23;100.00;62281.09;5014187;28;20506;-71
2023/08/07 08:22:09;;;;;;;6.13;1.27;;;;;;;-141.23;100.00;62281.09;5014406;28;20037;-71
2023/08/07 08:24:35;;;;;;;11.85;1.80;;;;;;;-141.23;100.00;62281.09;5028306;28;20063;-71
2023/08/07 08:27:01;;;;;;;21.17;1.98;;;;;;;-141.23;100.00;62281.09;5035396;28;20075;-70
2023/08/07 08:29:28;;;;;;;22.05;1.85;;;;;;;-141.23;100.00;62281.09;5051183;28;20041;-71
2023/08/07 08:31:55;;;;;;;10.02;1.70;;;;;;;-141.23;100.00;62281.09;5051481;28;20032;-71
2023/08/07 08:34:21;;;;;;;10.18;1.65;;;;;;;-141.23;100.00;62281.09;5035313;28;20135;-70
2023/08/07 08:36:48;;;;;;;2.95;1.30;;;;;;;-141.23;100.00;62281.09;5002361;28;20099;-70
2023/08/07 08:39:14;;;;;;;11.38;1.58;;;;;;;-141.23;100.00;62281.09;5002170;28;20045;-72
2023/08/07 08:41:42;;;;;;;3.47;1.30;;;;;;;-141.23;100.00;62281.09;5018363;28;20040;-72
2023/08/07 08:44:09;;;;;;;6.13;1.42;;;;;;;-141.23;100.00;62281.09;5052432;28;20055;-71
2023/08/07 08:46:36;;;;;;;6.38;1.33;;;;;;;-141.23;100.00;62281.09;5018119;28;20174;-71
2023/08/07 08:49:04;;;;;;;6.68;1.40;;;;;;;-141.23;100.00;62281.09;5034739;28;20377;-72
2023/08/07 08:51:30;;;;;;;6.18;1.40;;;;;;;-141.23;100.00;62281.09;5034397;28;20051;-71
2023/08/07 08:53:56;;;;;;;3.22;1.30;;;;;;;-141.23;100.00;62281.09;5034545;28;20048;-71
2023/08/07 08:56:23;;;;;;;2.38;1.30;;;;;;;-141.23;100.00;62281.09;5052129;28;20495;-70
2023/08/07 08:58:50;;;;;;;14.75;1.60;;;;;;;-141.23;100.00;62281.09;5036667;28;20095;-71
2023/08/07 09:01:18;;;;;;;5.78;1.35;;;;;;;-141.23;100.00;62281.09;5036593;28;20498;-72
2023/08/07 09:03:47;;;;;;;7.32;1.38;;;;;;;-141.23;100.00;62281.09;5035834;28;20252;-68
2023/08/07 09:06:14;;;;;;;6.18;1.60;;;;;;;-141.23;100.00;62281.09;5070323;28;20509;-68
2023/08/07 09:08:42;;;;;;;13.73;1.85;;;;;;;-141.23;100.00;62281.09;5036560;28;20044;-69
2023/08/07 09:11:10;;;;;;;5.00;1.38;;;;;;;-141.23;100.00;62281.09;5070029;28;20051;-68
2023/08/07 09:13:37;;;;;;;15.20;2.00;;;;;;;-141.23;100.00;62281.09;5052222;28;20093;-68
2023/08/07 09:16:03;;;;;;;8.93;1.65;;;;;;;-141.23;100.00;62281.09;5052815;28;20048;-68
2023/08/07 09:18:29;;;;;;;5.53;1.50;;;;;;;-141.23;100.00;62281.09;5035369;28;20135;-69
2023/08/07 09:20:57;;;;;;;7.18;1.30;;;;;;;-141.23;100.00;62281.09;5051936;28;20120;-68
2023/08/07 09:23:24;;;;;;;6.80;1.40;;;;;;;-141.23;100.00;62281.09;5019925;28;20505;-66
2023/08/07 09:25:59;;;;;;;11.50;1.50;;;;;;;-141.23;100.00;62281.09;5032773;28;20418;-69
2023/08/07 09:28:25;;;;;;;6.00;1.50;;;;;;;-141.23;100.00;62281.09;5032510;28;20136;-69
2023/08/07 09:30:53;;;;;;;11.95;1.50;;;;;;;-141.23;100.00;62281.09;5032165;28;20472;-69
2023/08/07 09:33:26;;;;;;;5.60;1.65;;;;;;;-141.23;100.00;62281.09;5013596;28;20046;-69
2023/08/07 09:35:52;;;;;;;9.95;1.60;;;;;;;-141.23;100.00;62281.09;5033945;28;20072;-68
2023/08/07 09:38:19;;;;;;;9.25;1.40;;;;;;;-141.23;100.00;62281.09;5013731;28;20053;-69
2023/08/07 09:40:44;;;;;;;8.52;1.30;;;;;;;-141.23;100.00;62281.09;4997167;28;20048;-70
2023/08/07 09:43:20;;;;;;;14.18;1.60;;;;;;;-141.23;100.00;62281.09;4997377;28;20045;-69
2023/08/07 09:45:46;;;;;;;10.60;1.42;;;;;;;-141.23;100.00;62281.09;5012508;28;20132;-69
2023/08/07 09:48:13;;;;;;;8.45;1.60;;;;;;;-141.23;100.00;62281.09;4995296;28;20506;-68
2023/08/07 09:50:39;;;;;;;5.82;1.33;;;;;;;-141.23;100.00;62281.09;5030608;28;20046;-69
2023/08/07 09:53:06;;;;;;;9.05;1.50;;;;;;;-141.23;100.00;62281.09;5028716;28;20072;-68
2023/08/07 09:55:32;;;;;;;7.07;1.10;;;;;;;-141.23;100.00;62281.09;5031764;28;20041;-69
2023/08/07 09:57:57;;;;;;;11.48;1.50;;;;;;;-141.23;100.00;62281.09;5015457;28;20064;-68
2023/08/07 10:00:23;;;;;;;7.03;1.40;;;;;;;-141.23;100.00;62281.09;5031450;28;20045;-68
2023/08/07 10:02:50;;;;;;;7.90;1.70;;;;;;;-141.23;100.00;62281.09;5014819;28;20087;-68
2023/08/07 10:05:17;;;;;;;6.55;1.60;;;;;;;-141.23;100.00;62281.09;5014706;28;20590;-68
2023/08/07 10:07:43;;;;;;;14.43;1.60;;;;;;;-141.23;100.00;62281.09;5032275;28;20468;-70
2023/08/07 10:10:10;;;;;;;8.57;1.55;;;;;;;-141.23;100.00;62281.09;4998925;28;20034;-68
2023/08/07 10:12:38;;;;;;;5.07;1.20;;;;;;;-141.23;100.00;62281.09;5014751;28;20148;-68
2023/08/07 10:15:05;;;;;;;13.15;1.40;;;;;;;-141.23;100.00;62281.09;5030604;28;20433;-68
2023/08/07 10:17:33;;;;;;;5.68;1.50;;;;;;;-141.23;100.00;62281.09;5031285;28;20042;-68
2023/08/07 10:19:59;;;;;;;9.15;1.50;;;;;;;-141.23;100.00;62281.09;4998606;28;20038;-68
2023/08/07 10:22:26;;;;;;;5.72;1.58;;;;;;;-141.23;100.00;62281.09;4997893;28;20041;-68
2023/08/07 10:24:53;;;;;;;7.72;1.42;;;;;;;-141.23;100.00;62281.09;5014868;28;20033;-68
2023/08/07 10:27:20;;;;;;;4.88;1.60;;;;;;;-141.23;100.00;62281.09;5031939;28;20044;-69
2023/08/07 10:29:47;;;;;;;3.92;1.40;;;;;;;-141.23;100.00;62281.09;5030812;28;20049;-68
2023/08/07 10:32:15;;;;;;;5.88;1.33;;;;;;;-141.23;100.00;62281.09;5031231;28;20061;-68
2023/08/07 10:34:47;;;;;;;4.20;1.30;;;;;;;-141.23;100.00;62281.09;5014962;28;20480;-68
2023/08/07 10:37:34;;;;;;;8.82;1.50;;;;;;;-141.23;100.00;62281.09;5014788;28;20045;-69
2023/08/07 10:40:04;;;;;;;7.30;1.50;;;;;;;-141.23;100.00;62281.09;5031788;28;20530;-68
2023/08/07 10:42:58;;;;;;;12.05;1.60;;;;;;;-141.23;100.00;62281.09;5030592;28;20530;-68
2023/08/07 10:45:24;;;;;;;13.85;1.73;;;;;;;-141.23;100.00;62281.09;5013870;28;20041;-68
2023/08/07 10:48:12;;;;;;;4.03;1.20;;;;;;;-141.23;100.00;62281.09;5014478;28;20534;-68
2023/08/07 10:51:00;;;;;;;6.88;1.60;;;;;;;-141.23;100.00;62281.09;5030775;28;20053;-68
2023/08/07 10:53:35;;;;;;;4.82;1.35;;;;;;;-141.23;100.00;62281.09;5031480;28;20049;-69
2023/08/07 10:56:07;;;;;;;6.30;1.60;;;;;;;-141.23;100.00;62281.09;5030834;28;20033;-68
2023/08/07 10:58:38;;;;;;;5.93;1.50;;;;;;;-141.23;100.00;62281.09;4998364;28;20480;-69
2023/08/07 11:01:21;;;;;;;6.43;1.40;;;;;;;-141.23;100.00;62281.09;5014173;28;20045;-68
2023/08/07 11:03:57;;;;;;;7.15;1.75;;;;;;;-141.23;100.00;62281.09;5014146;28;20067;-68
2023/08/07 11:06:26;;;;;;;3.70;1.60;;;;;;;-141.23;100.00;62281.09;5031422;28;20049;-68
2023/08/07 11:08:52;;;;;;;8.57;1.80;;;;;;;-141.23;100.00;62281.09;5030695;28;20064;-68
2023/08/07 11:11:18;;;;;;;7.88;1.70;;;;;;;-141.23;100.00;62281.09;5014246;28;20041;-69